createdAt,value
2023-11-07T00:03:42.398Z,10.62
2023-11-07T00:09:04.404Z,10.63
2023-11-07T00:14:27.481Z,10.63
2023-11-07T00:19:49.215Z,10.60
2023-11-07T00:25:10.835Z,10.58
2023-11-07T00:30:33.659Z,10.55
2023-11-07T00:35:55.537Z,10.45
2023-11-07T00:41:17.098Z,10.38
2023-11-07T00:46:38.885Z,10.32
2023-11-07T00:52:01.503Z,10.25
2023-11-07T00:57:23.138Z,10.15
2023-11-07T01:02:46.092Z,10.04
2023-11-07T01:08:08.017Z,9.96
2023-11-07T01:13:29.748Z,9.94
2023-11-07T01:18:53.483Z,9.88
2023-11-07T01:24:15.291Z,9.86
2023-11-07T01:29:37.055Z,9.81
2023-11-07T01:34:59.068Z,9.79
2023-11-07T01:40:20.794Z,9.77
2023-11-07T01:45:43.200Z,9.77
2023-11-07T01:51:05.847Z,9.75
2023-11-07T01:56:29.242Z,9.73
2023-11-07T02:01:53.332Z,9.72
2023-11-07T02:07:15.179Z,9.73
2023-11-07T02:12:39.628Z,9.71
2023-11-07T02:18:01.929Z,9.75
2023-11-07T02:23:31.015Z,9.80
2023-11-07T02:28:53.823Z,9.88
2023-11-07T02:34:15.577Z,9.92
2023-11-07T02:39:37.186Z,9.96
2023-11-07T02:44:59.031Z,10.03
2023-11-07T02:50:21.421Z,10.13
2023-11-07T02:55:43.479Z,10.23
2023-11-07T03:01:05.628Z,10.33
2023-11-07T03:06:27.431Z,10.33
2023-11-07T03:11:49.076Z,10.34
2023-11-07T03:17:10.717Z,10.37
2023-11-07T03:22:32.612Z,10.41
2023-11-07T03:27:54.243Z,10.42
2023-11-07T03:33:18.834Z,10.46
2023-11-07T03:38:43.724Z,10.49
2023-11-07T03:44:05.578Z,10.50
2023-11-07T03:49:27.961Z,10.50
2023-11-07T03:54:49.556Z,10.52
2023-11-07T04:00:11.991Z,10.52
2023-11-07T04:05:33.828Z,10.56
2023-11-07T04:10:55.455Z,10.56
2023-11-07T04:16:17.246Z,10.54
2023-11-07T04:21:38.947Z,10.55
2023-11-07T04:27:00.588Z,10.56
2023-11-07T04:32:22.811Z,10.56
2023-11-07T04:37:44.552Z,10.53
2023-11-07T04:43:06.954Z,10.50
2023-11-07T04:48:28.781Z,10.45
2023-11-07T04:53:50.787Z,10.39
2023-11-07T04:59:14.394Z,10.34
2023-11-07T05:04:36.331Z,10.29
2023-11-07T05:09:59.737Z,10.20
2023-11-07T05:15:21.389Z,10.17
2023-11-07T05:20:45.844Z,10.11
2023-11-07T05:26:07.554Z,10.09
2023-11-07T05:31:29.222Z,10.06
2023-11-07T05:36:50.828Z,10.06
2023-11-07T05:42:12.898Z,10.06
2023-11-07T05:47:35.211Z,10.04
2023-11-07T05:52:58.263Z,10.02
2023-11-07T05:58:21.473Z,10.01
2023-11-07T06:03:43.164Z,10.01
2023-11-07T06:09:05.658Z,10.01
2023-11-07T06:14:27.440Z,10.02
2023-11-07T06:19:49.177Z,10.03
2023-11-07T06:25:13.534Z,10.06
2023-11-07T06:30:35.947Z,10.09
2023-11-07T06:35:57.624Z,10.13
2023-11-07T06:41:19.300Z,10.18
2023-11-07T06:46:42.785Z,10.20
2023-11-07T06:52:04.849Z,10.23
2023-11-07T06:57:26.514Z,10.29
2023-11-07T07:02:49.653Z,10.32
2023-11-07T07:08:11.843Z,10.39
2023-11-07T07:13:34.684Z,10.44
2023-11-07T07:18:56.464Z,10.46
2023-11-07T07:24:22.567Z,10.47
2023-11-07T07:29:44.973Z,10.53
2023-11-07T07:35:15.981Z,10.59
2023-11-07T07:40:39.354Z,10.61
2023-11-07T07:46:00.958Z,10.61
2023-11-07T07:51:22.583Z,10.61
2023-11-07T07:56:49.268Z,10.57
2023-11-07T08:02:11.357Z,10.57
2023-11-07T08:07:34.403Z,10.58
2023-11-07T08:12:57.540Z,10.62
2023-11-07T08:18:19.496Z,10.58
2023-11-07T08:23:41.348Z,10.34
2023-11-07T08:29:09.774Z,10.20
2023-11-07T08:34:34.015Z,10.14
2023-11-07T08:39:57.250Z,10.08
2023-11-07T08:45:21.018Z,10.10
2023-11-07T08:50:42.774Z,10.16
2023-11-07T08:56:04.641Z,10.20
2023-11-07T09:01:26.333Z,10.19
2023-11-07T09:06:47.985Z,10.20
2023-11-07T09:12:11.504Z,10.23
2023-11-07T09:17:33.988Z,10.24
2023-11-07T09:22:55.690Z,10.28
2023-11-07T09:28:17.332Z,10.35
2023-11-07T09:33:39.186Z,10.35
2023-11-07T09:39:00.894Z,10.40
2023-11-07T09:44:23.168Z,10.43
2023-11-07T09:49:46.333Z,10.51
2023-11-07T09:55:10.116Z,10.56
2023-11-07T10:00:35.024Z,10.59
2023-11-07T10:05:59.406Z,10.69
2023-11-07T10:11:21.115Z,10.71
2023-11-07T10:16:43.141Z,10.74
2023-11-07T10:22:09.535Z,10.84
2023-11-07T10:27:31.151Z,10.84
2023-11-07T10:32:57.227Z,10.90
2023-11-07T10:38:19.889Z,10.95
2023-11-07T10:43:42.558Z,10.98
2023-11-07T10:49:06.360Z,11.01
2023-11-07T10:54:31.840Z,11.09
2023-11-07T11:00:05.499Z,11.20
2023-11-07T11:05:27.879Z,11.23
2023-11-07T11:10:50.109Z,11.26
2023-11-07T11:16:13.881Z,11.30
2023-11-07T11:22:16.140Z,11.32
2023-11-07T11:27:42.896Z,11.39
2023-11-07T11:33:12.867Z,11.38
2023-11-07T11:38:40.860Z,11.42
2023-11-07T11:44:13.992Z,11.46
2023-11-07T11:49:35.699Z,11.44
2023-11-07T11:54:57.272Z,11.47
2023-11-07T12:00:21.885Z,11.51
2023-11-07T12:06:00.887Z,11.56
2023-11-07T12:11:27.007Z,11.62
2023-11-07T12:17:11.123Z,11.58
2023-11-07T12:22:34.436Z,11.62
2023-11-07T12:28:05.285Z,11.61
2023-11-07T12:33:30.396Z,11.65
2023-11-07T12:38:52.240Z,11.72
2023-11-07T12:44:16.535Z,11.79
2023-11-07T12:49:39.986Z,11.75
2023-11-07T12:55:16.957Z,11.75
2023-11-07T13:01:02.318Z,11.72
2023-11-07T13:06:24.306Z,11.75
2023-11-07T13:11:45.995Z,11.79
2023-11-07T13:17:09.463Z,11.86
2023-11-07T13:22:31.189Z,11.87
2023-11-07T13:27:54.348Z,11.93
2023-11-07T13:33:16.288Z,11.90
2023-11-07T13:38:37.968Z,11.88
2023-11-07T13:43:59.794Z,11.87
2023-11-07T13:49:22.217Z,11.86
2023-11-07T13:54:43.919Z,11.88
2023-11-07T14:00:12.444Z,11.88
2023-11-07T14:05:34.634Z,11.92
2023-11-07T14:10:56.262Z,11.88
2023-11-07T14:16:18.133Z,11.80
2023-11-07T14:21:40.454Z,11.79
2023-11-07T14:27:02.124Z,11.65
2023-11-07T14:32:23.765Z,11.45
2023-11-07T14:37:45.376Z,11.18
2023-11-07T14:43:14.670Z,11.06
2023-11-07T14:48:38.991Z,10.94
2023-11-07T14:54:01.060Z,10.86
2023-11-07T14:59:24.968Z,10.79
2023-11-07T15:04:46.652Z,10.77
2023-11-07T15:10:11.696Z,10.76
2023-11-07T15:15:34.662Z,10.75
2023-11-07T15:20:57.749Z,10.76
2023-11-07T15:26:19.452Z,10.74
2023-11-07T15:31:41.467Z,10.76
2023-11-07T15:37:03.453Z,10.75
2023-11-07T15:42:25.088Z,10.69
2023-11-07T15:47:48.042Z,10.70
2023-11-07T15:53:10.599Z,10.69
2023-11-07T15:58:32.656Z,10.65
2023-11-07T16:03:54.793Z,10.58
2023-11-07T16:09:17.334Z,10.51
2023-11-07T16:14:39.036Z,10.46
2023-11-07T16:20:01.863Z,10.43
2023-11-07T16:25:24.836Z,10.43
2023-11-07T16:30:46.556Z,10.40
2023-11-07T16:36:08.312Z,10.35
2023-11-07T16:41:32.334Z,10.34
2023-11-07T16:46:54.753Z,10.32
2023-11-07T16:52:16.961Z,10.28
2023-11-07T16:57:38.763Z,10.26
2023-11-07T17:03:00.605Z,10.27
2023-11-07T17:08:22.711Z,10.28
2023-11-07T17:13:44.311Z,10.25
2023-11-07T17:19:06.160Z,10.26
2023-11-07T17:24:28.848Z,10.28
2023-11-07T17:29:50.605Z,10.26
2023-11-07T17:35:12.319Z,10.27
2023-11-07T17:40:33.906Z,10.27
2023-11-07T17:45:55.460Z,10.31
2023-11-07T17:51:23.761Z,10.30
2023-11-07T17:56:45.393Z,10.34
2023-11-07T18:02:07.235Z,10.32
2023-11-07T18:07:29.869Z,10.27
2023-11-07T18:12:51.440Z,10.24
2023-11-07T18:18:14.311Z,10.19
2023-11-07T18:23:37.819Z,10.13
2023-11-07T18:28:59.611Z,10.10
2023-11-07T18:34:23.600Z,10.09
2023-11-07T18:39:45.827Z,10.10
2023-11-07T18:45:11.165Z,10.09
2023-11-07T18:50:32.948Z,10.06
2023-11-07T18:55:55.215Z,10.03
2023-11-07T19:01:16.846Z,9.96
2023-11-07T19:06:38.524Z,9.91
2023-11-07T19:12:02.728Z,9.86
2023-11-07T19:17:24.699Z,9.82
2023-11-07T19:22:46.343Z,9.76
2023-11-07T19:28:08.022Z,9.72
2023-11-07T19:33:29.683Z,9.72
2023-11-07T19:38:51.456Z,9.69
2023-11-07T19:44:13.076Z,9.65
2023-11-07T19:49:34.752Z,9.64
2023-11-07T19:54:57.704Z,9.63
2023-11-07T20:00:24.638Z,9.63
2023-11-07T20:05:48.204Z,9.60
2023-11-07T20:11:10.052Z,9.61
2023-11-07T20:16:31.668Z,9.63
2023-11-07T20:21:53.271Z,9.67
2023-11-07T20:27:15.408Z,9.72
2023-11-07T20:32:37.079Z,9.74
2023-11-07T20:37:58.667Z,9.74
2023-11-07T20:43:20.241Z,9.76
2023-11-07T20:48:42.051Z,9.73
2023-11-07T20:54:04.972Z,9.74
2023-11-07T20:59:27.295Z,9.75
2023-11-07T21:04:49.305Z,9.72
2023-11-07T21:10:12.117Z,9.72
2023-11-07T21:15:33.788Z,9.77
2023-11-07T21:20:55.448Z,9.78
2023-11-07T21:26:17.345Z,9.77
2023-11-07T21:31:39.956Z,9.78
2023-11-07T21:37:01.594Z,9.70
2023-11-07T21:42:23.685Z,9.67
2023-11-07T21:47:45.556Z,9.64
2023-11-07T21:53:07.187Z,9.63
2023-11-07T21:58:28.811Z,9.61
2023-11-07T22:03:50.476Z,9.56
2023-11-07T22:09:12.200Z,9.59
2023-11-07T22:14:33.801Z,9.57
2023-11-07T22:19:58.850Z,9.52
2023-11-07T22:25:20.963Z,9.50
2023-11-07T22:30:42.881Z,9.49
2023-11-07T22:36:06.877Z,9.48
2023-11-07T22:41:28.700Z,9.47
2023-11-07T22:46:50.280Z,9.52
2023-11-07T22:52:14.733Z,9.49
2023-11-07T22:57:36.375Z,9.46
2023-11-07T23:03:01.539Z,9.47
2023-11-07T23:08:23.248Z,9.45
2023-11-07T23:13:44.819Z,9.44
2023-11-07T23:19:06.855Z,9.43
2023-11-07T23:24:28.482Z,9.40
2023-11-07T23:29:55.157Z,9.41
2023-11-07T23:35:18.347Z,9.39
2023-11-07T23:40:40.563Z,9.38
2023-11-07T23:46:02.491Z,9.39
2023-11-07T23:51:24.273Z,9.37
2023-11-07T23:56:45.899Z,9.33
